createdAt,value
2022-12-22T00:02:35.850Z,8.00
2022-12-22T00:06:56.326Z,8.00
2022-12-22T00:11:17.509Z,8.00
2022-12-22T00:15:39.668Z,8.00
2022-12-22T00:20:01.532Z,8.00
2022-12-22T00:24:22.177Z,8.00
2022-12-22T00:28:42.360Z,8.10
2022-12-22T00:33:04.471Z,8.10
2022-12-22T00:37:24.610Z,8.10
2022-12-22T00:41:44.733Z,8.10
2022-12-22T00:46:05.397Z,8.10
2022-12-22T00:50:27.948Z,8.10
2022-12-22T00:54:47.973Z,8.20
2022-12-22T00:59:09.177Z,8.20
2022-12-22T01:03:29.992Z,8.20
2022-12-22T01:07:51.721Z,8.20
2022-12-22T01:12:11.864Z,8.20
2022-12-22T01:16:32.584Z,8.20
2022-12-22T01:20:53.086Z,8.20
2022-12-22T01:25:14.991Z,8.20
2022-12-22T01:29:35.120Z,8.20
2022-12-22T01:33:55.320Z,8.20
2022-12-22T01:38:15.361Z,8.20
2022-12-22T01:42:37.327Z,8.20
2022-12-22T01:47:00.540Z,8.20
2022-12-22T01:51:21.798Z,8.20
2022-12-22T01:55:42.790Z,8.20
2022-12-22T02:00:04.203Z,8.20
2022-12-22T02:04:24.852Z,8.20
2022-12-22T02:08:47.595Z,8.10
2022-12-22T02:13:12.669Z,8.10
2022-12-22T02:17:36.987Z,8.10
2022-12-22T02:22:02.122Z,8.00
2022-12-22T02:26:28.903Z,8.00
2022-12-22T02:30:50.008Z,8.00
2022-12-22T02:35:10.464Z,8.00
2022-12-22T02:39:33.549Z,8.00
2022-12-22T02:44:07.468Z,8.10
2022-12-22T02:48:30.115Z,8.10
2022-12-22T02:52:51.915Z,8.10
2022-12-22T02:57:11.923Z,8.10
2022-12-22T03:01:34.008Z,8.10
2022-12-22T03:05:54.570Z,8.10
2022-12-22T03:10:14.650Z,8.10
2022-12-22T03:14:34.625Z,8.10
2022-12-22T03:18:56.124Z,8.10
2022-12-22T03:23:21.484Z,8.10
2022-12-22T03:27:24.348Z,8.10
2022-12-22T03:31:27.777Z,8.20
2022-12-22T03:35:32.005Z,8.20
2022-12-22T03:39:34.795Z,8.20
2022-12-22T03:43:54.908Z,8.20
2022-12-22T03:47:57.767Z,8.20
2022-12-22T03:52:01.915Z,8.20
2022-12-22T03:56:07.986Z,8.20
2022-12-22T04:00:11.382Z,8.20
2022-12-22T04:04:15.163Z,8.20
2022-12-22T04:08:19.347Z,8.10
2022-12-22T04:12:39.551Z,8.10
2022-12-22T04:16:42.384Z,8.10
2022-12-22T04:20:45.254Z,8.10
2022-12-22T04:24:49.483Z,8.10
2022-12-22T04:28:52.737Z,8.10
2022-12-22T04:32:55.558Z,8.10
2022-12-22T04:37:06.981Z,8.10
2022-12-22T04:41:17.165Z,8.10
2022-12-22T04:45:19.948Z,8.10
2022-12-22T04:49:22.750Z,8.10
2022-12-22T04:53:26.709Z,8.10
2022-12-22T04:57:33.270Z,8.10
2022-12-22T05:01:39.843Z,8.10
2022-12-22T05:05:42.761Z,8.10
2022-12-22T05:09:45.747Z,8.10
2022-12-22T05:13:49.896Z,8.10
2022-12-22T05:17:52.705Z,8.10
2022-12-22T05:21:55.528Z,8.10
2022-12-22T05:25:58.316Z,8.10
2022-12-22T05:30:02.544Z,8.20
2022-12-22T05:34:05.403Z,8.20
2022-12-22T05:38:08.194Z,8.10
2022-12-22T05:42:10.998Z,8.10
2022-12-22T05:46:15.209Z,8.10
2022-12-22T05:50:19.190Z,8.10
2022-12-22T05:54:21.954Z,8.10
2022-12-22T05:58:24.755Z,8.10
2022-12-22T06:02:29.111Z,8.10
2022-12-22T06:06:32.055Z,8.10
2022-12-22T06:10:34.882Z,8.20
2022-12-22T06:14:37.662Z,8.20
2022-12-22T06:18:41.799Z,8.20
2022-12-22T06:22:44.610Z,8.20
2022-12-22T06:26:47.462Z,8.20
2022-12-22T06:30:50.279Z,8.20
2022-12-22T06:34:54.404Z,8.10
2022-12-22T06:38:57.218Z,8.10
2022-12-22T06:43:11.924Z,8.10
2022-12-22T06:47:14.711Z,8.10
2022-12-22T06:51:18.853Z,8.10
2022-12-22T06:55:21.661Z,8.00
2022-12-22T06:59:24.444Z,8.00
2022-12-22T07:03:27.339Z,8.00
2022-12-22T07:07:31.783Z,8.00
2022-12-22T07:11:34.656Z,8.00
2022-12-22T07:15:37.455Z,8.00
2022-12-22T07:19:40.257Z,8.00
2022-12-22T07:23:44.384Z,8.00
2022-12-22T07:27:47.169Z,8.00
2022-12-22T07:31:50.026Z,8.10
2022-12-22T07:36:01.539Z,8.00
2022-12-22T07:40:06.263Z,8.10
2022-12-22T07:44:09.260Z,8.10
2022-12-22T07:48:26.011Z,8.10
2022-12-22T07:52:28.855Z,8.10
2022-12-22T07:56:33.267Z,8.10
2022-12-22T08:00:36.007Z,8.10
2022-12-22T08:04:38.996Z,8.10
2022-12-22T08:08:41.853Z,8.10
2022-12-22T08:12:46.044Z,8.10
2022-12-22T08:16:48.931Z,8.20
2022-12-22T08:20:52.075Z,8.20
2022-12-22T08:24:55.420Z,8.20
2022-12-22T08:29:03.516Z,8.20
2022-12-22T08:33:06.449Z,8.20
2022-12-22T08:37:12.399Z,8.20
2022-12-22T08:41:16.353Z,8.20
2022-12-22T08:45:20.579Z,8.30
2022-12-22T08:49:23.831Z,8.30
2022-12-22T08:54:03.444Z,8.30
2022-12-22T08:57:55.815Z,8.30
2022-12-22T09:02:05.112Z,8.30
2022-12-22T09:06:08.155Z,8.40
2022-12-22T09:10:11.387Z,8.40
2022-12-22T09:14:14.403Z,8.40
2022-12-22T09:18:18.541Z,8.40
2022-12-22T09:22:28.153Z,8.50
2022-12-22T09:26:31.529Z,8.50
2022-12-22T09:30:34.338Z,8.50
2022-12-22T09:34:38.502Z,8.50
2022-12-22T09:38:41.888Z,8.60
2022-12-22T09:42:44.680Z,8.60
2022-12-22T09:46:47.528Z,8.60
2022-12-22T09:50:51.781Z,8.70
2022-12-22T09:54:56.301Z,8.70
2022-12-22T09:58:59.160Z,8.80
2022-12-22T10:03:05.815Z,8.80
2022-12-22T10:07:14.379Z,8.80
2022-12-22T10:11:19.482Z,8.90
2022-12-22T10:15:22.404Z,8.90
2022-12-22T10:19:25.214Z,8.90
2022-12-22T10:23:30.132Z,9.00
2022-12-22T10:27:37.245Z,9.00
2022-12-22T10:32:01.036Z,9.10
2022-12-22T10:36:04.027Z,9.10
2022-12-22T10:40:16.122Z,9.10
2022-12-22T10:44:21.226Z,9.20
2022-12-22T10:48:28.521Z,9.20
2022-12-22T10:52:33.120Z,9.20
2022-12-22T10:56:37.334Z,9.30
2022-12-22T11:00:41.223Z,9.30
2022-12-22T11:13:09.631Z,9.50
2022-12-22T11:17:19.207Z,9.50
2022-12-22T11:21:26.987Z,9.50
2022-12-22T11:25:33.951Z,9.60
2022-12-22T11:29:49.393Z,9.60
2022-12-22T11:33:58.821Z,9.70
2022-12-22T11:38:06.998Z,9.70
2022-12-22T11:42:19.350Z,9.80
2022-12-22T11:46:26.093Z,9.80
2022-12-22T11:51:07.275Z,9.80
2022-12-22T11:55:09.280Z,9.90
2022-12-22T12:03:31.993Z,10.10
2022-12-22T12:07:38.691Z,10.10
2022-12-22T12:11:44.338Z,10.10
2022-12-22T12:15:49.036Z,10.10
2022-12-22T12:20:09.196Z,10.20
2022-12-22T12:24:24.660Z,10.20
2022-12-22T12:28:31.832Z,10.60
2022-12-22T12:32:37.445Z,11.30
2022-12-22T12:36:43.180Z,11.90
2022-12-22T12:40:51.421Z,12.50
2022-12-22T12:44:54.646Z,12.80
2022-12-22T12:53:09.674Z,13.10
2022-12-22T12:57:23.201Z,13.00
2022-12-22T13:01:50.020Z,12.80
2022-12-22T13:05:53.817Z,12.60
2022-12-22T13:10:09.677Z,12.40
2022-12-22T13:14:33.823Z,12.20
2022-12-22T13:18:44.329Z,12.00
2022-12-22T13:22:52.497Z,11.80
2022-12-22T13:26:56.184Z,11.50
2022-12-22T13:31:00.974Z,11.30
2022-12-22T13:39:29.572Z,11.00
2022-12-22T13:43:33.185Z,10.80
2022-12-22T13:47:40.883Z,10.70
2022-12-22T13:51:43.805Z,10.70
2022-12-22T13:55:47.311Z,10.70
2022-12-22T13:59:51.304Z,10.70
2022-12-22T14:04:00.893Z,10.60
2022-12-22T14:08:05.298Z,10.40
2022-12-22T14:12:12.765Z,10.20
2022-12-22T14:16:16.153Z,10.10
2022-12-22T14:20:22.838Z,9.90
2022-12-22T14:24:26.623Z,9.80
2022-12-22T14:28:33.175Z,9.70
2022-12-22T14:32:39.243Z,9.60
2022-12-22T14:36:46.189Z,9.50
2022-12-22T14:40:56.221Z,9.40
2022-12-22T14:49:03.113Z,9.30
2022-12-22T14:53:10.371Z,9.20
2022-12-22T14:57:17.028Z,9.10
2022-12-22T15:01:21.693Z,9.00
2022-12-22T15:05:26.164Z,8.90
2022-12-22T15:10:13.276Z,8.80
2022-12-22T15:13:54.116Z,8.70
2022-12-22T15:17:56.993Z,8.60
2022-12-22T15:21:59.937Z,8.60
2022-12-22T15:26:04.063Z,8.50
2022-12-22T15:30:07.561Z,8.40
2022-12-22T15:34:18.037Z,8.40
2022-12-22T15:38:21.983Z,8.30
2022-12-22T15:42:26.130Z,8.20
2022-12-22T15:46:29.071Z,8.20
2022-12-22T15:50:38.666Z,8.10
2022-12-22T15:54:42.261Z,8.10
2022-12-22T15:58:46.525Z,8.00
2022-12-22T16:02:49.533Z,8.00
2022-12-22T16:06:52.672Z,8.00
2022-12-22T16:10:55.476Z,7.90
2022-12-22T16:15:00.449Z,7.90
2022-12-22T16:19:03.308Z,7.80
2022-12-22T16:23:06.950Z,7.80
2022-12-22T16:27:10.525Z,7.70
2022-12-22T16:31:19.270Z,7.60
2022-12-22T16:35:23.807Z,7.50
2022-12-22T16:39:26.581Z,7.50
2022-12-22T16:47:53.481Z,7.30
2022-12-22T16:51:56.486Z,7.30
2022-12-22T16:55:59.904Z,7.20
2022-12-22T17:00:03.183Z,7.10
2022-12-22T17:04:08.596Z,7.10
2022-12-22T17:08:16.971Z,7.10
2022-12-22T17:12:22.039Z,7.10
2022-12-22T17:16:24.851Z,7.10
2022-12-22T17:20:29.333Z,7.20
2022-12-22T17:24:32.114Z,7.20
2022-12-22T17:28:35.613Z,7.20
2022-12-22T17:32:38.442Z,7.20
2022-12-22T17:36:42.603Z,7.30
2022-12-22T17:40:45.800Z,7.30
2022-12-22T17:44:48.987Z,7.30
2022-12-22T17:48:51.799Z,7.30
2022-12-22T17:52:56.315Z,7.30
2022-12-22T17:57:01.339Z,7.30
2022-12-22T18:01:04.331Z,7.40
2022-12-22T18:05:07.351Z,7.30
2022-12-22T18:09:16.239Z,7.40
2022-12-22T18:13:22.528Z,7.30
2022-12-22T18:17:31.636Z,7.30
2022-12-22T18:21:38.213Z,7.30
2022-12-22T18:25:42.368Z,7.30
2022-12-22T18:29:45.330Z,7.30
2022-12-22T18:33:48.366Z,7.30
2022-12-22T18:37:52.058Z,7.30
2022-12-22T18:41:56.425Z,7.30
2022-12-22T18:45:59.240Z,7.40
2022-12-22T18:50:03.588Z,7.40
2022-12-22T18:54:18.521Z,7.40
2022-12-22T18:58:24.609Z,7.50
2022-12-22T19:02:28.249Z,7.50
2022-12-22T19:06:31.102Z,7.50
2022-12-22T19:10:34.992Z,7.60
2022-12-22T19:14:39.168Z,7.60
2022-12-22T19:18:42.027Z,7.60
2022-12-22T19:22:44.934Z,7.70
2022-12-22T19:26:47.710Z,7.70
2022-12-22T19:30:52.309Z,7.70
2022-12-22T19:34:55.211Z,7.80
2022-12-22T19:39:04.041Z,7.80
2022-12-22T19:43:09.837Z,7.90
2022-12-22T19:47:17.698Z,7.90
2022-12-22T19:51:20.465Z,7.90
2022-12-22T19:55:24.017Z,8.00
2022-12-22T19:59:37.282Z,8.00
2022-12-22T20:03:42.596Z,8.00
2022-12-22T20:07:45.629Z,8.00
2022-12-22T20:11:48.467Z,8.00
2022-12-22T20:15:54.201Z,8.10
2022-12-22T20:19:58.361Z,8.10
2022-12-22T20:24:01.805Z,8.10
2022-12-22T20:28:06.623Z,8.10
2022-12-22T20:32:13.244Z,8.10
2022-12-22T20:36:21.002Z,8.10
2022-12-22T20:40:24.955Z,8.10
2022-12-22T20:44:28.397Z,8.00
2022-12-22T20:48:34.402Z,8.00
2022-12-22T20:52:38.730Z,8.00
2022-12-22T20:56:41.918Z,8.00
2022-12-22T21:00:44.744Z,8.10
2022-12-22T21:04:47.537Z,8.10
2022-12-22T21:08:51.849Z,8.10
2022-12-22T21:12:54.730Z,8.10
2022-12-22T21:16:57.655Z,8.10
2022-12-22T21:21:00.702Z,8.10
2022-12-22T21:25:05.186Z,8.10
2022-12-22T21:29:09.763Z,8.10
2022-12-22T21:33:12.566Z,8.10
2022-12-22T21:37:16.869Z,8.10
2022-12-22T21:41:41.728Z,8.10
2022-12-22T21:45:45.814Z,8.10
2022-12-22T21:49:48.917Z,8.10
2022-12-22T21:53:51.778Z,8.00
2022-12-22T21:57:55.976Z,8.00
2022-12-22T22:01:58.871Z,8.00
2022-12-22T22:06:01.779Z,8.00
2022-12-22T22:10:04.752Z,8.00
2022-12-22T22:14:08.880Z,8.00
2022-12-22T22:18:15.602Z,8.00
2022-12-22T22:22:18.427Z,8.00
2022-12-22T22:26:21.211Z,8.00
2022-12-22T22:30:26.077Z,8.00
2022-12-22T22:34:28.970Z,8.00
2022-12-22T22:38:31.737Z,8.00
2022-12-22T22:42:34.511Z,7.90
2022-12-22T22:46:38.668Z,8.00
2022-12-22T22:50:41.753Z,8.00
2022-12-22T22:54:44.576Z,8.00
2022-12-22T22:58:47.905Z,8.00
2022-12-22T23:02:52.362Z,8.00
2022-12-22T23:06:55.218Z,8.00
2022-12-22T23:10:58.067Z,8.00
2022-12-22T23:15:01.893Z,8.00
2022-12-22T23:19:06.097Z,8.10
2022-12-22T23:23:09.033Z,8.10
2022-12-22T23:27:12.340Z,8.10
2022-12-22T23:31:15.271Z,8.10
2022-12-22T23:35:19.432Z,8.10
2022-12-22T23:39:22.594Z,8.20
2022-12-22T23:43:25.386Z,8.20
2022-12-22T23:47:28.186Z,8.20
2022-12-22T23:51:33.688Z,8.20
2022-12-22T23:55:36.482Z,8.30
2022-12-22T23:59:39.279Z,8.30
